Terminal Aerodrome Forecast
Issued by NWS

Home | Current Version | Previous Version | Text Only | Print | Product List | Glossary Off
Versions: 1 2 3 4 5 6 7 8 9 10 11 12 13 14 15 16 17 18 19 20 21 22 23 24 25

000
FTUS43 KMPX 010300 AAA
TAFRWF
TAF AMD
KRWF 010334Z 0104/0124 13015G20KT P6SM SCT050 BKN090
     FM010800 15010KT 5SM BR OVC025
      TEMPO 0109/0113 3SM BR BKN008
     FM011600 18008KT P6SM OVC018
     FM012000 20006KT P6SM OVC030=

USA.gov is the U.S. government's official web portal to all federal, state and local government web resources and services.